createdAt,value
2022-11-02T00:02:11.202Z,0.60
2022-11-02T00:04:39.788Z,0.40
2022-11-02T00:07:11.777Z,0.85
2022-11-02T00:09:42.812Z,0.70
2022-11-02T00:14:40.729Z,0.45
2022-11-02T00:17:10.679Z,0.82
2022-11-02T00:19:41.955Z,0.50
2022-11-02T00:22:10.234Z,0.40
2022-11-02T00:24:39.182Z,0.68
2022-11-02T00:27:11.348Z,0.45
2022-11-02T00:29:41.168Z,1.27
2022-11-02T00:34:39.531Z,0.77
2022-11-02T00:37:08.078Z,0.40
2022-11-02T00:39:36.537Z,0.75
2022-11-02T00:42:10.198Z,0.68
2022-11-02T00:44:39.885Z,0.60
2022-11-02T00:47:12.866Z,0.50
2022-11-02T00:49:43.927Z,0.60
2022-11-02T00:52:17.430Z,0.70
2022-11-02T00:54:50.790Z,0.88
2022-11-02T00:57:21.289Z,0.32
2022-11-02T00:59:49.519Z,0.68
2022-11-02T01:02:19.223Z,0.57
2022-11-02T01:04:48.309Z,0.60
2022-11-02T01:07:18.480Z,0.65
2022-11-02T01:09:47.012Z,0.60
2022-11-02T01:12:15.249Z,0.50
2022-11-02T01:14:46.965Z,0.70
2022-11-02T01:17:20.370Z,0.68
2022-11-02T01:19:48.778Z,0.63
2022-11-02T01:22:17.580Z,0.30
2022-11-02T01:24:45.992Z,0.63
2022-11-02T01:27:16.050Z,0.93
2022-11-02T01:29:47.036Z,0.80
2022-11-02T01:32:16.827Z,0.70
2022-11-02T01:34:47.127Z,0.50
2022-11-02T01:37:18.801Z,0.65
2022-11-02T01:39:47.859Z,1.25
2022-11-02T01:42:22.640Z,0.65
2022-11-02T01:44:54.615Z,0.40
2022-11-02T01:47:27.454Z,1.42
2022-11-02T01:50:00.605Z,0.90
2022-11-02T01:52:35.885Z,0.50
2022-11-02T01:55:10.429Z,1.05
2022-11-02T01:57:41.177Z,0.95
2022-11-02T02:00:15.125Z,1.20
2022-11-02T02:02:49.778Z,1.08
2022-11-02T02:05:23.416Z,0.85
2022-11-02T02:07:53.620Z,0.57
2022-11-02T02:10:28.528Z,1.25
2022-11-02T02:12:57.481Z,1.73
2022-11-02T02:15:37.249Z,0.50
2022-11-02T02:18:21.398Z,1.00
2022-11-02T02:21:13.520Z,1.30
2022-11-02T02:23:59.422Z,0.80
2022-11-02T02:26:55.495Z,0.88
2022-11-02T02:29:31.687Z,0.55
2022-11-02T02:32:06.834Z,1.27
2022-11-02T02:34:42.026Z,0.70
2022-11-02T02:37:18.369Z,0.82
2022-11-02T02:39:54.668Z,0.60
2022-11-02T02:42:28.430Z,0.75
2022-11-02T02:45:08.796Z,0.70
2022-11-02T02:47:44.341Z,1.45
2022-11-02T02:50:20.777Z,0.68
2022-11-02T02:52:53.923Z,0.80
2022-11-02T02:55:28.798Z,0.65
2022-11-02T02:57:59.088Z,0.77
2022-11-02T03:00:41.801Z,0.82
2022-11-02T03:03:13.011Z,1.30
2022-11-02T03:05:42.089Z,0.82
2022-11-02T03:10:49.510Z,1.02
2022-11-02T03:13:36.300Z,0.70
2022-11-02T03:16:18.383Z,0.95
2022-11-02T03:18:54.293Z,0.75
2022-11-02T03:21:34.327Z,0.70
2022-11-02T03:24:10.650Z,0.65
2022-11-02T03:26:49.226Z,1.33
2022-11-02T03:29:23.365Z,1.38
2022-11-02T03:31:58.089Z,0.95
2022-11-02T03:34:33.387Z,0.73
2022-11-02T03:37:14.514Z,1.10
2022-11-02T03:39:49.401Z,0.43
2022-11-02T03:42:23.895Z,0.73
2022-11-02T03:44:59.446Z,0.32
2022-11-02T03:47:40.049Z,0.70
2022-11-02T03:50:18.246Z,0.68
2022-11-02T03:52:50.267Z,0.63
2022-11-02T03:55:22.317Z,0.68
2022-11-02T03:57:53.665Z,0.50
2022-11-02T04:00:34.663Z,0.55
2022-11-02T04:03:08.803Z,1.05
2022-11-02T04:05:42.800Z,1.38
2022-11-02T04:08:37.353Z,0.80
2022-11-02T04:11:28.860Z,0.60
2022-11-02T04:14:21.201Z,0.95
2022-11-02T04:17:11.840Z,0.75
2022-11-02T04:19:49.705Z,1.05
2022-11-02T04:22:38.930Z,1.00
2022-11-02T04:25:18.472Z,0.70
2022-11-02T04:28:08.976Z,0.30
2022-11-02T04:30:52.502Z,0.43
2022-11-02T04:33:33.983Z,1.13
2022-11-02T04:36:24.973Z,0.68
2022-11-02T04:38:56.749Z,0.63
2022-11-02T04:41:43.806Z,0.90
2022-11-02T04:44:37.384Z,0.60
2022-11-02T04:47:18.310Z,0.80
2022-11-02T04:49:48.210Z,0.68
2022-11-02T04:52:22.023Z,0.90
2022-11-02T04:54:53.118Z,0.95
2022-11-02T04:57:22.266Z,0.80
2022-11-02T04:59:51.439Z,1.90
2022-11-02T05:02:20.670Z,0.50
2022-11-02T05:07:25.599Z,1.48
2022-11-02T05:09:55.470Z,0.70
2022-11-02T05:14:57.812Z,0.95
2022-11-02T05:17:27.863Z,1.63
2022-11-02T05:19:57.504Z,0.65
2022-11-02T05:22:27.348Z,0.68
2022-11-02T05:24:59.440Z,0.88
2022-11-02T05:27:28.361Z,0.70
2022-11-02T05:29:59.988Z,0.88
2022-11-02T05:32:29.667Z,1.13
2022-11-02T05:35:01.240Z,0.88
2022-11-02T05:37:32.994Z,1.67
2022-11-02T05:40:02.580Z,1.27
2022-11-02T05:42:39.465Z,0.73
2022-11-02T05:45:10.507Z,0.88
2022-11-02T05:47:38.724Z,1.00
2022-11-02T05:50:07.794Z,1.40
2022-11-02T05:52:38.721Z,0.87
2022-11-02T05:55:09.136Z,0.73
2022-11-02T05:57:40.080Z,0.85
2022-11-02T06:00:13.219Z,1.05
2022-11-02T06:02:43.025Z,0.77
2022-11-02T06:05:13.330Z,0.70
2022-11-02T06:07:43.802Z,0.95
2022-11-02T06:10:13.131Z,0.93
2022-11-02T06:12:41.864Z,0.63
2022-11-02T06:15:11.310Z,1.33
2022-11-02T06:17:40.958Z,1.35
2022-11-02T06:20:11.171Z,0.80
2022-11-02T06:22:43.975Z,0.90
2022-11-02T06:25:15.693Z,1.25
2022-11-02T06:27:52.244Z,1.10
2022-11-02T06:30:22.817Z,1.15
2022-11-02T06:32:53.993Z,1.08
2022-11-02T06:35:23.876Z,0.95
2022-11-02T06:40:25.699Z,1.30
2022-11-02T06:43:15.396Z,0.80
2022-11-02T06:45:46.363Z,0.98
2022-11-02T06:48:16.537Z,0.80
2022-11-02T06:50:44.831Z,0.70
2022-11-02T06:53:15.302Z,1.17
2022-11-02T06:55:44.062Z,0.80
2022-11-02T06:58:12.509Z,0.75
2022-11-02T07:00:41.093Z,1.52
2022-11-02T07:03:11.871Z,0.80
2022-11-02T07:05:43.839Z,1.13
2022-11-02T07:08:16.578Z,1.27
2022-11-02T07:10:48.023Z,1.55
2022-11-02T07:13:20.277Z,0.68
2022-11-02T07:15:52.959Z,0.65
2022-11-02T07:18:22.114Z,0.93
2022-11-02T07:20:51.334Z,1.15
2022-11-02T07:23:23.967Z,1.15
2022-11-02T07:26:05.007Z,0.90
2022-11-02T07:28:33.385Z,1.33
2022-11-02T07:31:01.985Z,0.68
2022-11-02T07:33:30.232Z,1.33
2022-11-02T07:35:58.914Z,0.70
2022-11-02T07:38:29.728Z,0.70
2022-11-02T07:40:58.059Z,1.00
2022-11-02T07:43:27.254Z,0.93
2022-11-02T07:46:03.003Z,1.10
2022-11-02T07:48:33.623Z,0.68
2022-11-02T07:51:02.172Z,1.02
2022-11-02T07:53:32.455Z,0.95
2022-11-02T07:56:01.184Z,1.42
2022-11-02T07:58:30.351Z,1.00
2022-11-02T08:01:00.608Z,1.20
2022-11-02T08:03:31.078Z,1.60
2022-11-02T08:06:03.199Z,1.45
2022-11-02T08:08:33.350Z,0.80
2022-11-02T08:11:06.442Z,1.20
2022-11-02T08:13:35.660Z,1.25
2022-11-02T08:16:04.375Z,0.82
2022-11-02T08:18:35.033Z,0.90
2022-11-02T08:21:03.280Z,1.35
2022-11-02T08:23:34.129Z,1.00
2022-11-02T08:26:02.706Z,1.55
2022-11-02T08:28:36.024Z,0.98
2022-11-02T08:31:08.607Z,0.90
2022-11-02T08:36:05.810Z,1.23
2022-11-02T08:38:35.861Z,1.37
2022-11-02T08:41:04.623Z,0.90
2022-11-02T08:43:33.150Z,1.05
2022-11-02T08:46:18.762Z,0.55
2022-11-02T08:48:47.153Z,0.88
2022-11-02T08:51:16.536Z,1.40
2022-11-02T08:53:51.633Z,0.68
2022-11-02T08:56:22.884Z,0.93
2022-11-02T08:58:53.223Z,1.20
2022-11-02T09:01:23.505Z,1.13
2022-11-02T09:03:52.173Z,1.45
2022-11-02T09:06:21.637Z,0.88
2022-11-02T09:08:53.799Z,1.05
2022-11-02T09:11:25.224Z,1.13
2022-11-02T09:13:56.846Z,1.17
2022-11-02T09:16:25.790Z,0.50
2022-11-02T09:18:56.669Z,1.15
2022-11-02T09:21:27.300Z,1.33
2022-11-02T09:24:00.085Z,0.20
2022-11-02T09:26:28.794Z,0.50
2022-11-02T09:28:57.144Z,0.95
2022-11-02T09:31:25.536Z,0.60
2022-11-02T09:33:54.206Z,1.38
2022-11-02T09:36:25.158Z,0.80
2022-11-02T09:38:53.725Z,1.08
2022-11-02T09:41:31.972Z,0.57
2022-11-02T09:44:10.895Z,0.95
2022-11-02T09:46:42.239Z,2.13
2022-11-02T09:49:17.135Z,0.73
2022-11-02T09:51:50.345Z,0.80
2022-11-02T09:54:23.368Z,0.70
2022-11-02T09:56:59.475Z,1.20
2022-11-02T09:59:29.679Z,1.35
2022-11-02T10:02:06.434Z,1.15
2022-11-02T10:05:18.055Z,0.90
2022-11-02T10:08:29.702Z,0.77
2022-11-02T10:11:09.883Z,1.10
2022-11-02T10:13:45.399Z,1.85
2022-11-02T10:16:18.901Z,0.95
2022-11-02T10:18:50.809Z,0.73
2022-11-02T10:21:22.129Z,0.43
2022-11-02T10:23:53.791Z,0.77
2022-11-02T10:26:26.940Z,0.50
2022-11-02T10:29:07.393Z,0.77
2022-11-02T10:31:35.987Z,0.30
2022-11-02T10:34:21.063Z,0.70
2022-11-02T10:36:59.527Z,0.68
2022-11-02T10:39:37.854Z,0.70
2022-11-02T10:42:18.726Z,0.70
2022-11-02T10:45:13.926Z,1.20
2022-11-02T10:47:48.746Z,0.68
2022-11-02T10:50:48.852Z,0.63
2022-11-02T10:53:39.966Z,0.88
2022-11-02T10:56:17.052Z,0.45
2022-11-02T10:58:50.698Z,0.43
2022-11-02T11:01:20.681Z,1.02
2022-11-02T11:04:00.118Z,1.27
2022-11-02T11:06:38.122Z,0.50
2022-11-02T11:09:14.703Z,0.50
2022-11-02T11:11:52.846Z,0.85
2022-11-02T11:20:25.889Z,0.68
2022-11-02T11:23:20.339Z,0.25
2022-11-02T11:26:09.612Z,0.32
2022-11-02T11:31:14.194Z,0.40
2022-11-02T11:33:51.473Z,0.30
2022-11-02T11:38:58.264Z,0.65
2022-11-02T11:41:26.881Z,1.10
2022-11-02T11:43:55.932Z,0.80
2022-11-02T11:46:25.557Z,1.48
2022-11-02T11:48:59.948Z,0.60
2022-11-02T11:51:33.057Z,0.82
2022-11-02T11:54:23.830Z,0.55
2022-11-02T11:56:54.868Z,0.70
2022-11-02T11:59:32.342Z,0.95
2022-11-02T12:02:03.872Z,0.40
2022-11-02T12:04:37.951Z,0.50
2022-11-02T12:07:31.042Z,0.68
2022-11-02T12:10:11.741Z,0.60
2022-11-02T12:13:04.456Z,0.90
2022-11-02T12:18:33.442Z,0.60
2022-11-02T12:21:16.706Z,0.40
2022-11-02T12:24:06.257Z,0.95
2022-11-02T12:26:50.848Z,1.40
2022-11-02T12:29:38.328Z,0.35
2022-11-02T12:32:16.945Z,0.60
2022-11-02T12:38:17.399Z,0.35
2022-11-02T12:40:56.267Z,0.75
2022-11-02T12:43:37.217Z,0.73
2022-11-02T12:46:14.193Z,0.52
2022-11-02T12:48:55.059Z,0.80
2022-11-02T12:51:30.003Z,0.85
2022-11-02T12:54:07.599Z,0.73
2022-11-02T12:56:45.097Z,1.15
2022-11-02T12:59:18.860Z,0.82
2022-11-02T13:01:52.626Z,0.50
2022-11-02T13:04:29.519Z,0.63
2022-11-02T13:07:07.525Z,0.55
2022-11-02T13:09:41.007Z,0.85
2022-11-02T13:12:15.354Z,0.70
2022-11-02T13:14:47.696Z,0.50
2022-11-02T13:17:23.002Z,0.55
2022-11-02T13:19:56.324Z,0.52
2022-11-02T13:22:29.975Z,0.80
2022-11-02T13:25:08.898Z,0.40
2022-11-02T13:27:43.425Z,0.80
2022-11-02T13:30:18.704Z,0.55
2022-11-02T13:32:52.683Z,0.93
2022-11-02T13:35:28.426Z,0.55
2022-11-02T13:38:04.841Z,0.63
2022-11-02T13:40:41.502Z,0.28
2022-11-02T13:43:39.710Z,0.70
2022-11-02T13:46:20.695Z,0.60
2022-11-02T13:48:58.367Z,0.60
2022-11-02T13:51:34.724Z,0.50
2022-11-02T13:54:11.897Z,0.55
2022-11-02T13:56:43.511Z,0.25
2022-11-02T13:59:22.765Z,0.60
2022-11-02T14:01:56.333Z,1.10
2022-11-02T14:04:26.905Z,0.52
2022-11-02T14:06:59.073Z,0.32
2022-11-02T14:09:36.244Z,0.35
2022-11-02T14:12:43.603Z,0.28
2022-11-02T14:15:48.763Z,0.45
2022-11-02T14:18:31.691Z,0.88
2022-11-02T14:21:21.121Z,0.45
2022-11-02T14:23:49.634Z,0.30
2022-11-02T14:26:59.114Z,0.50
2022-11-02T14:32:27.648Z,0.75
2022-11-02T14:35:09.624Z,0.65
2022-11-02T14:37:56.066Z,0.65
2022-11-02T14:40:32.569Z,0.93
2022-11-02T14:43:35.774Z,0.30
2022-11-02T14:46:22.991Z,0.73
2022-11-02T14:48:54.007Z,0.68
2022-11-02T14:51:25.988Z,0.57
2022-11-02T14:53:58.358Z,0.95
2022-11-02T14:56:53.342Z,0.75
2022-11-02T14:59:28.247Z,0.80
2022-11-02T15:02:02.004Z,0.50
2022-11-02T15:04:36.367Z,0.70
2022-11-02T15:07:07.275Z,0.68
2022-11-02T15:09:56.556Z,0.32
2022-11-02T15:12:32.775Z,0.52
2022-11-02T15:15:18.542Z,0.38
2022-11-02T15:18:22.509Z,0.50
2022-11-02T15:21:24.586Z,0.57
2022-11-02T15:24:17.645Z,0.55
2022-11-02T15:26:52.308Z,0.50
2022-11-02T15:29:44.973Z,0.40
2022-11-02T15:32:22.545Z,0.95
2022-11-02T15:34:56.274Z,0.40
2022-11-02T15:37:29.544Z,0.30
2022-11-02T15:40:00.528Z,0.60
2022-11-02T15:42:39.724Z,0.50
2022-11-02T15:45:47.764Z,0.55
2022-11-02T15:48:32.730Z,0.40
2022-11-02T15:51:11.534Z,0.43
2022-11-02T15:54:00.259Z,0.50
2022-11-02T15:56:48.627Z,0.57
2022-11-02T15:59:43.038Z,1.00
2022-11-02T16:02:26.506Z,1.38
2022-11-02T16:04:57.957Z,0.88
2022-11-02T16:07:38.277Z,0.88
2022-11-02T16:10:25.214Z,1.35
2022-11-02T16:13:01.793Z,0.90
2022-11-02T16:15:30.741Z,1.40
2022-11-02T16:18:00.043Z,1.17
2022-11-02T16:20:30.206Z,1.48
2022-11-02T16:23:08.370Z,0.70
2022-11-02T16:25:40.431Z,0.90
2022-11-02T16:28:20.862Z,0.80
2022-11-02T16:31:17.312Z,1.52
2022-11-02T16:33:49.348Z,1.63
2022-11-02T16:36:20.576Z,1.70
2022-11-02T16:38:59.450Z,2.13
2022-11-02T16:41:30.203Z,2.00
2022-11-02T16:44:01.660Z,2.28
2022-11-02T16:46:32.458Z,1.98
2022-11-02T16:49:18.498Z,2.22
2022-11-02T16:51:52.797Z,2.90
2022-11-02T16:54:31.896Z,2.33
2022-11-02T16:57:08.638Z,2.83
2022-11-02T16:59:53.220Z,2.25
2022-11-02T17:02:31.619Z,1.92
2022-11-02T17:05:05.852Z,2.55
2022-11-02T17:07:40.415Z,2.78
2022-11-02T17:10:20.845Z,2.28
2022-11-02T17:12:50.054Z,2.55
2022-11-02T17:15:20.611Z,2.53
2022-11-02T17:17:50.023Z,3.08
2022-11-02T17:20:21.873Z,2.58
2022-11-02T17:22:52.996Z,2.72
2022-11-02T17:25:25.458Z,1.65
2022-11-02T17:27:56.188Z,2.40
2022-11-02T17:30:45.031Z,1.90
2022-11-02T17:33:28.650Z,2.05
2022-11-02T17:36:04.570Z,1.92
2022-11-02T17:38:32.980Z,1.95
2022-11-02T17:41:23.279Z,2.38
2022-11-02T17:43:52.005Z,2.05
2022-11-02T17:46:20.939Z,1.60
2022-11-02T17:48:49.564Z,2.35
2022-11-02T17:51:24.248Z,1.70
2022-11-02T17:53:52.733Z,1.55
2022-11-02T17:56:23.616Z,1.45
2022-11-02T17:58:52.377Z,1.35
2022-11-02T18:01:21.023Z,1.75
2022-11-02T18:03:51.048Z,1.30
2022-11-02T18:06:19.818Z,1.80
2022-11-02T18:09:06.292Z,1.73
2022-11-02T18:11:36.378Z,1.55
2022-11-02T18:14:05.032Z,1.05
2022-11-02T18:16:33.848Z,1.38
2022-11-02T18:19:02.194Z,1.53
2022-11-02T18:21:32.159Z,3.15
2022-11-02T18:24:01.098Z,2.33
2022-11-02T18:26:32.626Z,2.03
2022-11-02T18:29:04.272Z,2.08
2022-11-02T18:31:33.267Z,1.65
2022-11-02T18:34:02.321Z,2.05
2022-11-02T18:36:30.817Z,1.75
2022-11-02T18:38:59.034Z,2.47
2022-11-02T18:41:32.006Z,1.58
2022-11-02T18:44:07.828Z,1.48
2022-11-02T18:46:41.737Z,2.38
2022-11-02T18:51:42.849Z,1.88
2022-11-02T18:54:12.093Z,2.10
2022-11-02T18:56:40.727Z,1.83
2022-11-02T18:59:11.285Z,2.10
2022-11-02T19:01:40.674Z,1.70
2022-11-02T19:04:14.454Z,1.83
2022-11-02T19:07:03.265Z,1.42
2022-11-02T19:09:33.076Z,2.35
2022-11-02T19:14:36.587Z,1.70
2022-11-02T19:17:06.537Z,1.38
2022-11-02T19:19:35.616Z,2.45
2022-11-02T19:22:04.374Z,1.80
2022-11-02T19:24:33.134Z,1.60
2022-11-02T19:27:02.313Z,1.73
2022-11-02T19:29:30.739Z,2.33
2022-11-02T19:32:00.537Z,2.45
2022-11-02T19:34:29.123Z,1.90
2022-11-02T19:36:57.455Z,2.10
2022-11-02T19:39:27.005Z,1.63
2022-11-02T19:41:55.713Z,1.67
2022-11-02T19:44:24.729Z,1.63
2022-11-02T19:46:53.743Z,2.55
2022-11-02T19:49:23.547Z,1.33
2022-11-02T19:51:52.049Z,1.42
2022-11-02T19:54:23.165Z,1.80
2022-11-02T19:56:51.769Z,1.83
2022-11-02T19:59:22.557Z,1.60
2022-11-02T20:01:52.312Z,1.73
2022-11-02T20:04:21.544Z,1.55
2022-11-02T20:06:51.872Z,1.90
2022-11-02T20:09:21.675Z,2.33
2022-11-02T20:11:49.983Z,2.10
2022-11-02T20:14:19.805Z,1.95
2022-11-02T20:16:58.726Z,1.90
2022-11-02T20:19:38.175Z,1.55
2022-11-02T20:22:07.848Z,1.70
2022-11-02T20:27:06.883Z,2.65
2022-11-02T20:30:17.346Z,2.15
2022-11-02T20:33:04.226Z,2.13
2022-11-02T20:39:40.066Z,1.98
2022-11-02T20:44:37.796Z,1.85
2022-11-02T20:47:06.476Z,2.42
2022-11-02T20:49:50.021Z,2.80
2022-11-02T20:52:21.984Z,1.92
2022-11-02T20:54:52.454Z,1.80
2022-11-02T20:57:22.401Z,1.75
2022-11-02T21:02:22.148Z,1.33
2022-11-02T21:10:43.815Z,1.90
2022-11-02T22:08:40.172Z,2.13
2022-11-02T22:11:09.300Z,1.40
2022-11-02T22:13:39.097Z,1.30
2022-11-02T22:16:14.547Z,1.65
2022-11-02T22:18:44.365Z,1.65
2022-11-02T22:23:49.936Z,1.75
2022-11-02T22:26:18.440Z,1.75
2022-11-02T22:28:47.279Z,2.03
2022-11-02T22:31:15.968Z,1.88
2022-11-02T22:33:49.092Z,2.43
2022-11-02T22:36:17.984Z,1.73
2022-11-02T22:38:48.575Z,1.47
2022-11-02T23:51:18.012Z,2.05
2022-11-02T23:54:05.203Z,1.48
2022-11-02T23:56:44.481Z,1.73
2022-11-02T23:59:14.904Z,1.60
